sensor_id;sensor_type;location;lat;lon;timestamp;P1;durP1;ratioP1;P2;durP2;ratioP2
40867;SDS011;26586;50.708;22.412;2023-02-28T00:01:13;44.53;;;20.35;;
40867;SDS011;26586;50.708;22.412;2023-02-28T00:03:40;39.20;;;19.30;;
40867;SDS011;26586;50.708;22.412;2023-02-28T00:06:07;37.20;;;18.30;;
40867;SDS011;26586;50.708;22.412;2023-02-28T00:11:02;29.45;;;16.02;;
40867;SDS011;26586;50.708;22.412;2023-02-28T00:13:37;34.38;;;16.75;;
40867;SDS011;26586;50.708;22.412;2023-02-28T00:16:08;33.22;;;14.98;;
40867;SDS011;26586;50.708;22.412;2023-02-28T00:18:35;30.90;;;15.68;;
40867;SDS011;26586;50.708;22.412;2023-02-28T00:21:02;30.30;;;15.10;;
40867;SDS011;26586;50.708;22.412;2023-02-28T00:23:28;32.78;;;15.38;;
40867;SDS011;26586;50.708;22.412;2023-02-28T00:25:55;32.30;;;16.73;;
40867;SDS011;26586;50.708;22.412;2023-02-28T00:28:21;30.17;;;15.30;;
40867;SDS011;26586;50.708;22.412;2023-02-28T00:30:48;26.65;;;14.10;;
40867;SDS011;26586;50.708;22.412;2023-02-28T00:33:14;36.55;;;18.17;;
40867;SDS011;26586;50.708;22.412;2023-02-28T00:35:41;40.03;;;18.00;;
40867;SDS011;26586;50.708;22.412;2023-02-28T00:38:10;35.42;;;16.58;;
40867;SDS011;26586;50.708;22.412;2023-02-28T00:40:36;36.80;;;16.42;;
40867;SDS011;26586;50.708;22.412;2023-02-28T00:43:02;41.17;;;19.45;;
40867;SDS011;26586;50.708;22.412;2023-02-28T00:45:29;65.95;;;28.05;;
40867;SDS011;26586;50.708;22.412;2023-02-28T00:47:56;78.40;;;31.90;;
40867;SDS011;26586;50.708;22.412;2023-02-28T00:50:22;82.65;;;31.88;;
40867;SDS011;26586;50.708;22.412;2023-02-28T00:52:48;75.63;;;31.33;;
40867;SDS011;26586;50.708;22.412;2023-02-28T00:55:14;80.13;;;31.00;;
40867;SDS011;26586;50.708;22.412;2023-02-28T00:57:40;86.35;;;32.40;;
40867;SDS011;26586;50.708;22.412;2023-02-28T01:00:08;79.97;;;29.97;;
40867;SDS011;26586;50.708;22.412;2023-02-28T01:02:35;88.85;;;31.58;;
40867;SDS011;26586;50.708;22.412;2023-02-28T01:05:01;76.75;;;29.73;;
40867;SDS011;26586;50.708;22.412;2023-02-28T01:07:27;72.22;;;30.52;;
40867;SDS011;26586;50.708;22.412;2023-02-28T01:09:54;83.00;;;33.35;;
40867;SDS011;26586;50.708;22.412;2023-02-28T01:12:20;78.32;;;33.67;;
40867;SDS011;26586;50.708;22.412;2023-02-28T01:14:46;76.43;;;35.28;;
40867;SDS011;26586;50.708;22.412;2023-02-28T01:17:12;68.68;;;31.35;;
40867;SDS011;26586;50.708;22.412;2023-02-28T01:19:39;46.70;;;23.67;;
40867;SDS011;26586;50.708;22.412;2023-02-28T01:22:05;41.42;;;20.80;;
40867;SDS011;26586;50.708;22.412;2023-02-28T01:24:33;47.70;;;24.08;;
40867;SDS011;26586;50.708;22.412;2023-02-28T01:26:59;49.88;;;23.30;;
40867;SDS011;26586;50.708;22.412;2023-02-28T01:29:25;51.92;;;24.17;;
40867;SDS011;26586;50.708;22.412;2023-02-28T01:31:51;54.28;;;23.70;;
40867;SDS011;26586;50.708;22.412;2023-02-28T01:34:17;44.67;;;24.53;;
40867;SDS011;26586;50.708;22.412;2023-02-28T01:36:44;44.03;;;22.70;;
40867;SDS011;26586;50.708;22.412;2023-02-28T01:39:11;65.70;;;30.85;;
40867;SDS011;26586;50.708;22.412;2023-02-28T01:41:38;56.00;;;26.33;;
40867;SDS011;26586;50.708;22.412;2023-02-28T01:44:07;67.20;;;34.85;;
40867;SDS011;26586;50.708;22.412;2023-02-28T01:47:09;57.47;;;27.80;;
40867;SDS011;26586;50.708;22.412;2023-02-28T01:49:36;47.60;;;22.77;;
40867;SDS011;26586;50.708;22.412;2023-02-28T01:52:02;46.72;;;20.70;;
40867;SDS011;26586;50.708;22.412;2023-02-28T01:54:32;39.38;;;19.73;;
40867;SDS011;26586;50.708;22.412;2023-02-28T01:57:07;37.20;;;20.00;;
40867;SDS011;26586;50.708;22.412;2023-02-28T01:59:39;36.90;;;18.73;;
40867;SDS011;26586;50.708;22.412;2023-02-28T02:02:16;34.33;;;18.77;;
40867;SDS011;26586;50.708;22.412;2023-02-28T02:04:46;36.97;;;18.67;;
40867;SDS011;26586;50.708;22.412;2023-02-28T02:07:15;38.30;;;20.13;;
40867;SDS011;26586;50.708;22.412;2023-02-28T02:15:30;28.55;;;13.63;;
40867;SDS011;26586;50.708;22.412;2023-02-28T02:18:09;58.70;;;23.38;;
40867;SDS011;26586;50.708;22.412;2023-02-28T02:23:33;79.88;;;32.90;;
40867;SDS011;26586;50.708;22.412;2023-02-28T02:42:02;61.95;;;32.25;;
40867;SDS011;26586;50.708;22.412;2023-02-28T02:44:39;48.30;;;25.23;;
40867;SDS011;26586;50.708;22.412;2023-02-28T02:47:15;48.50;;;23.75;;
40867;SDS011;26586;50.708;22.412;2023-02-28T02:49:46;42.20;;;22.50;;
40867;SDS011;26586;50.708;22.412;2023-02-28T02:52:17;49.22;;;25.15;;
40867;SDS011;26586;50.708;22.412;2023-02-28T02:54:47;51.05;;;24.35;;
40867;SDS011;26586;50.708;22.412;2023-02-28T02:57:18;50.72;;;26.17;;
40867;SDS011;26586;50.708;22.412;2023-02-28T02:59:48;58.08;;;26.20;;
40867;SDS011;26586;50.708;22.412;2023-02-28T03:02:17;54.78;;;28.45;;
40867;SDS011;26586;50.708;22.412;2023-02-28T03:04:53;59.33;;;27.75;;
40867;SDS011;26586;50.708;22.412;2023-02-28T03:07:27;52.33;;;28.25;;
40867;SDS011;26586;50.708;22.412;2023-02-28T03:09:54;54.95;;;26.55;;
40867;SDS011;26586;50.708;22.412;2023-02-28T03:12:23;49.00;;;27.75;;
40867;SDS011;26586;50.708;22.412;2023-02-28T03:15:19;79.30;;;41.83;;
40867;SDS011;26586;50.708;22.412;2023-02-28T03:23:23;46.03;;;24.33;;
40867;SDS011;26586;50.708;22.412;2023-02-28T03:26:14;52.35;;;26.35;;
40867;SDS011;26586;50.708;22.412;2023-02-28T03:28:51;50.25;;;31.38;;
40867;SDS011;26586;50.708;22.412;2023-02-28T03:31:19;37.50;;;18.63;;
40867;SDS011;26586;50.708;22.412;2023-02-28T03:33:54;34.58;;;19.25;;
40867;SDS011;26586;50.708;22.412;2023-02-28T03:36:30;32.63;;;17.52;;
40867;SDS011;26586;50.708;22.412;2023-02-28T03:39:17;28.00;;;13.40;;
40867;SDS011;26586;50.708;22.412;2023-02-28T03:42:02;30.73;;;16.05;;
40867;SDS011;26586;50.708;22.412;2023-02-28T03:44:33;25.15;;;13.27;;
40867;SDS011;26586;50.708;22.412;2023-02-28T03:49:52;37.22;;;19.73;;
40867;SDS011;26586;50.708;22.412;2023-02-28T03:52:22;34.60;;;18.05;;
40867;SDS011;26586;50.708;22.412;2023-02-28T03:54:54;28.25;;;15.10;;
40867;SDS011;26586;50.708;22.412;2023-02-28T04:00:18;8.13;;;4.30;;
40867;SDS011;26586;50.708;22.412;2023-02-28T04:02:49;4.68;;;2.72;;
40867;SDS011;26586;50.708;22.412;2023-02-28T04:05:19;4.07;;;2.33;;
40867;SDS011;26586;50.708;22.412;2023-02-28T04:07:46;5.10;;;2.70;;
40867;SDS011;26586;50.708;22.412;2023-02-28T04:10:12;3.90;;;2.27;;
40867;SDS011;26586;50.708;22.412;2023-02-28T04:12:38;4.95;;;3.25;;
40867;SDS011;26586;50.708;22.412;2023-02-28T04:15:05;6.85;;;3.15;;
40867;SDS011;26586;50.708;22.412;2023-02-28T04:17:31;5.60;;;3.13;;
40867;SDS011;26586;50.708;22.412;2023-02-28T04:19:58;9.45;;;4.22;;
40867;SDS011;26586;50.708;22.412;2023-02-28T04:22:24;8.02;;;4.55;;
40867;SDS011;26586;50.708;22.412;2023-02-28T04:24:53;4.93;;;2.65;;
40867;SDS011;26586;50.708;22.412;2023-02-28T04:27:20;9.80;;;4.20;;
40867;SDS011;26586;50.708;22.412;2023-02-28T04:29:46;45.40;;;12.55;;
40867;SDS011;26586;50.708;22.412;2023-02-28T04:32:13;85.88;;;22.85;;
40867;SDS011;26586;50.708;22.412;2023-02-28T04:34:39;63.80;;;17.70;;
40867;SDS011;26586;50.708;22.412;2023-02-28T04:37:05;50.42;;;13.30;;
40867;SDS011;26586;50.708;22.412;2023-02-28T04:39:34;15.83;;;4.90;;
40867;SDS011;26586;50.708;22.412;2023-02-28T04:42:01;8.00;;;5.13;;
40867;SDS011;26586;50.708;22.412;2023-02-28T04:44:28;5.85;;;2.42;;
40867;SDS011;26586;50.708;22.412;2023-02-28T04:46:54;28.05;;;7.80;;
40867;SDS011;26586;50.708;22.412;2023-02-28T04:49:20;23.60;;;6.90;;
40867;SDS011;26586;50.708;22.412;2023-02-28T04:51:46;11.77;;;4.60;;
40867;SDS011;26586;50.708;22.412;2023-02-28T04:54:12;9.07;;;4.00;;
40867;SDS011;26586;50.708;22.412;2023-02-28T04:56:39;10.55;;;3.70;;
40867;SDS011;26586;50.708;22.412;2023-02-28T04:59:05;6.80;;;4.10;;
40867;SDS011;26586;50.708;22.412;2023-02-28T05:01:32;4.93;;;3.35;;
40867;SDS011;26586;50.708;22.412;2023-02-28T05:03:59;9.13;;;3.50;;
40867;SDS011;26586;50.708;22.412;2023-02-28T05:06:28;9.35;;;3.85;;
40867;SDS011;26586;50.708;22.412;2023-02-28T05:08:55;7.88;;;4.40;;
40867;SDS011;26586;50.708;22.412;2023-02-28T05:11:27;14.75;;;5.40;;
40867;SDS011;26586;50.708;22.412;2023-02-28T05:14:01;6.63;;;3.67;;
40867;SDS011;26586;50.708;22.412;2023-02-28T05:16:31;20.05;;;5.20;;
40867;SDS011;26586;50.708;22.412;2023-02-28T05:18:58;5.75;;;4.13;;
40867;SDS011;26586;50.708;22.412;2023-02-28T05:21:31;11.18;;;4.57;;
40867;SDS011;26586;50.708;22.412;2023-02-28T05:24:00;13.70;;;6.45;;
40867;SDS011;26586;50.708;22.412;2023-02-28T05:26:28;11.68;;;5.85;;
40867;SDS011;26586;50.708;22.412;2023-02-28T05:28:56;10.48;;;7.03;;
40867;SDS011;26586;50.708;22.412;2023-02-28T05:31:22;16.35;;;7.45;;
40867;SDS011;26586;50.708;22.412;2023-02-28T05:33:49;16.73;;;7.05;;
40867;SDS011;26586;50.708;22.412;2023-02-28T05:36:16;10.00;;;5.97;;
40867;SDS011;26586;50.708;22.412;2023-02-28T05:38:42;10.77;;;5.45;;
40867;SDS011;26586;50.708;22.412;2023-02-28T05:41:11;83.43;;;14.95;;
40867;SDS011;26586;50.708;22.412;2023-02-28T05:43:37;23.48;;;6.95;;
40867;SDS011;26586;50.708;22.412;2023-02-28T05:46:06;18.08;;;7.00;;
40867;SDS011;26586;50.708;22.412;2023-02-28T05:48:35;18.23;;;7.55;;
40867;SDS011;26586;50.708;22.412;2023-02-28T05:51:02;49.30;;;13.55;;
40867;SDS011;26586;50.708;22.412;2023-02-28T05:53:29;24.45;;;9.85;;
40867;SDS011;26586;50.708;22.412;2023-02-28T05:55:56;31.15;;;11.35;;
40867;SDS011;26586;50.708;22.412;2023-02-28T05:58:23;15.25;;;8.85;;
40867;SDS011;26586;50.708;22.412;2023-02-28T06:00:50;17.77;;;13.10;;
40867;SDS011;26586;50.708;22.412;2023-02-28T06:03:17;20.70;;;11.23;;
40867;SDS011;26586;50.708;22.412;2023-02-28T06:05:43;15.38;;;8.82;;
40867;SDS011;26586;50.708;22.412;2023-02-28T06:08:09;17.55;;;7.30;;
40867;SDS011;26586;50.708;22.412;2023-02-28T06:10:35;15.65;;;7.88;;
40867;SDS011;26586;50.708;22.412;2023-02-28T06:13:03;29.58;;;9.90;;
40867;SDS011;26586;50.708;22.412;2023-02-28T06:15:29;23.48;;;8.90;;
40867;SDS011;26586;50.708;22.412;2023-02-28T06:17:56;44.33;;;12.95;;
40867;SDS011;26586;50.708;22.412;2023-02-28T06:20:23;94.78;;;14.70;;
40867;SDS011;26586;50.708;22.412;2023-02-28T06:22:57;26.45;;;10.45;;
40867;SDS011;26586;50.708;22.412;2023-02-28T06:25:26;22.83;;;9.57;;
40867;SDS011;26586;50.708;22.412;2023-02-28T06:27:54;23.98;;;10.48;;
40867;SDS011;26586;50.708;22.412;2023-02-28T06:30:20;49.47;;;21.67;;
40867;SDS011;26586;50.708;22.412;2023-02-28T06:32:50;20.65;;;10.30;;
40867;SDS011;26586;50.708;22.412;2023-02-28T06:35:17;23.25;;;12.88;;
40867;SDS011;26586;50.708;22.412;2023-02-28T06:37:43;56.50;;;27.35;;
40867;SDS011;26586;50.708;22.412;2023-02-28T06:40:10;23.67;;;11.98;;
40867;SDS011;26586;50.708;22.412;2023-02-28T06:42:36;12.90;;;7.25;;
40867;SDS011;26586;50.708;22.412;2023-02-28T06:45:02;15.13;;;6.45;;
40867;SDS011;26586;50.708;22.412;2023-02-28T06:47:37;12.73;;;7.15;;
40867;SDS011;26586;50.708;22.412;2023-02-28T06:50:05;18.48;;;8.38;;
40867;SDS011;26586;50.708;22.412;2023-02-28T06:55:01;14.70;;;7.72;;
40867;SDS011;26586;50.708;22.412;2023-02-28T06:57:29;22.85;;;9.15;;
40867;SDS011;26586;50.708;22.412;2023-02-28T07:00:00;10.32;;;5.22;;
40867;SDS011;26586;50.708;22.412;2023-02-28T07:02:28;9.38;;;4.80;;
40867;SDS011;26586;50.708;22.412;2023-02-28T07:04:55;13.70;;;7.30;;
40867;SDS011;26586;50.708;22.412;2023-02-28T07:07:22;31.77;;;10.20;;
40867;SDS011;26586;50.708;22.412;2023-02-28T07:09:48;9.95;;;5.68;;
40867;SDS011;26586;50.708;22.412;2023-02-28T07:12:14;8.90;;;5.93;;
40867;SDS011;26586;50.708;22.412;2023-02-28T07:14:40;10.52;;;5.47;;
40867;SDS011;26586;50.708;22.412;2023-02-28T07:17:07;9.30;;;4.90;;
40867;SDS011;26586;50.708;22.412;2023-02-28T07:19:36;35.80;;;18.80;;
40867;SDS011;26586;50.708;22.412;2023-02-28T07:22:02;14.68;;;8.55;;
40867;SDS011;26586;50.708;22.412;2023-02-28T07:24:28;23.65;;;13.45;;
40867;SDS011;26586;50.708;22.412;2023-02-28T07:26:55;32.58;;;15.95;;
40867;SDS011;26586;50.708;22.412;2023-02-28T07:29:21;48.80;;;26.27;;
40867;SDS011;26586;50.708;22.412;2023-02-28T07:31:48;21.70;;;14.13;;
40867;SDS011;26586;50.708;22.412;2023-02-28T07:34:15;25.42;;;15.15;;
40867;SDS011;26586;50.708;22.412;2023-02-28T07:36:42;13.40;;;9.57;;
40867;SDS011;26586;50.708;22.412;2023-02-28T07:39:08;12.27;;;9.07;;
40867;SDS011;26586;50.708;22.412;2023-02-28T07:41:35;39.45;;;30.70;;
40867;SDS011;26586;50.708;22.412;2023-02-28T07:44:04;7.53;;;4.68;;
40867;SDS011;26586;50.708;22.412;2023-02-28T07:46:31;11.32;;;6.40;;
40867;SDS011;26586;50.708;22.412;2023-02-28T07:49:00;8.50;;;3.53;;
40867;SDS011;26586;50.708;22.412;2023-02-28T07:51:31;30.67;;;20.80;;
40867;SDS011;26586;50.708;22.412;2023-02-28T07:53:57;59.35;;;34.83;;
40867;SDS011;26586;50.708;22.412;2023-02-28T07:56:23;21.75;;;13.52;;
40867;SDS011;26586;50.708;22.412;2023-02-28T07:58:49;12.27;;;6.03;;
40867;SDS011;26586;50.708;22.412;2023-02-28T08:01:16;10.95;;;3.63;;
40867;SDS011;26586;50.708;22.412;2023-02-28T08:03:44;30.15;;;8.40;;
40867;SDS011;26586;50.708;22.412;2023-02-28T08:06:15;28.83;;;10.60;;
40867;SDS011;26586;50.708;22.412;2023-02-28T08:08:43;27.50;;;11.10;;
40867;SDS011;26586;50.708;22.412;2023-02-28T08:11:10;7.75;;;3.70;;
40867;SDS011;26586;50.708;22.412;2023-02-28T08:13:36;6.82;;;3.55;;
40867;SDS011;26586;50.708;22.412;2023-02-28T08:16:02;11.32;;;5.88;;
40867;SDS011;26586;50.708;22.412;2023-02-28T08:18:28;8.52;;;6.47;;
40867;SDS011;26586;50.708;22.412;2023-02-28T08:20:55;9.17;;;4.43;;
40867;SDS011;26586;50.708;22.412;2023-02-28T08:23:21;22.52;;;10.65;;
40867;SDS011;26586;50.708;22.412;2023-02-28T08:25:54;10.13;;;7.60;;
40867;SDS011;26586;50.708;22.412;2023-02-28T08:28:21;29.90;;;14.60;;
40867;SDS011;26586;50.708;22.412;2023-02-28T08:30:48;7.78;;;4.15;;
40867;SDS011;26586;50.708;22.412;2023-02-28T08:33:14;5.40;;;3.70;;
40867;SDS011;26586;50.708;22.412;2023-02-28T08:35:40;13.73;;;8.03;;
40867;SDS011;26586;50.708;22.412;2023-02-28T08:38:06;9.38;;;4.50;;
40867;SDS011;26586;50.708;22.412;2023-02-28T08:40:33;11.48;;;5.60;;
40867;SDS011;26586;50.708;22.412;2023-02-28T08:42:59;4.00;;;2.60;;
40867;SDS011;26586;50.708;22.412;2023-02-28T08:45:25;51.13;;;14.95;;
40867;SDS011;26586;50.708;22.412;2023-02-28T08:47:53;26.33;;;12.95;;
40867;SDS011;26586;50.708;22.412;2023-02-28T08:50:21;4.50;;;2.47;;
40867;SDS011;26586;50.708;22.412;2023-02-28T08:52:47;6.57;;;4.43;;
40867;SDS011;26586;50.708;22.412;2023-02-28T08:55:13;4.20;;;2.27;;
40867;SDS011;26586;50.708;22.412;2023-02-28T08:57:40;4.10;;;2.22;;
40867;SDS011;26586;50.708;22.412;2023-02-28T09:00:07;5.93;;;2.65;;
40867;SDS011;26586;50.708;22.412;2023-02-28T09:02:33;4.03;;;2.25;;
40867;SDS011;26586;50.708;22.412;2023-02-28T09:04:59;8.30;;;4.13;;
40867;SDS011;26586;50.708;22.412;2023-02-28T09:07:25;4.60;;;2.05;;
40867;SDS011;26586;50.708;22.412;2023-02-28T09:09:52;5.40;;;1.93;;
40867;SDS011;26586;50.708;22.412;2023-02-28T09:12:25;11.45;;;6.32;;
40867;SDS011;26586;50.708;22.412;2023-02-28T09:14:52;3.83;;;2.63;;
40867;SDS011;26586;50.708;22.412;2023-02-28T09:17:19;14.35;;;8.73;;
40867;SDS011;26586;50.708;22.412;2023-02-28T09:19:47;28.25;;;19.25;;
40867;SDS011;26586;50.708;22.412;2023-02-28T09:22:14;16.33;;;4.45;;
40867;SDS011;26586;50.708;22.412;2023-02-28T09:24:41;3.90;;;2.03;;
40867;SDS011;26586;50.708;22.412;2023-02-28T09:27:07;4.78;;;2.40;;
40867;SDS011;26586;50.708;22.412;2023-02-28T09:29:34;8.37;;;7.60;;
40867;SDS011;26586;50.708;22.412;2023-02-28T09:32:00;3.15;;;2.10;;
40867;SDS011;26586;50.708;22.412;2023-02-28T09:34:27;5.72;;;2.38;;
40867;SDS011;26586;50.708;22.412;2023-02-28T09:36:56;3.75;;;2.35;;
40867;SDS011;26586;50.708;22.412;2023-02-28T09:39:22;4.40;;;2.15;;
40867;SDS011;26586;50.708;22.412;2023-02-28T09:41:50;3.47;;;2.20;;
40867;SDS011;26586;50.708;22.412;2023-02-28T09:44:31;3.50;;;2.00;;
40867;SDS011;26586;50.708;22.412;2023-02-28T09:47:12;6.20;;;2.30;;
40867;SDS011;26586;50.708;22.412;2023-02-28T09:49:47;5.07;;;3.03;;
40867;SDS011;26586;50.708;22.412;2023-02-28T09:54:45;3.65;;;1.90;;
40867;SDS011;26586;50.708;22.412;2023-02-28T10:05:27;5.78;;;3.47;;
40867;SDS011;26586;50.708;22.412;2023-02-28T10:08:17;4.28;;;2.47;;
40867;SDS011;26586;50.708;22.412;2023-02-28T10:10:51;8.68;;;3.45;;
40867;SDS011;26586;50.708;22.412;2023-02-28T10:15:56;3.83;;;3.03;;
40867;SDS011;26586;50.708;22.412;2023-02-28T10:18:28;9.25;;;4.18;;
40867;SDS011;26586;50.708;22.412;2023-02-28T10:21:02;17.05;;;9.55;;
40867;SDS011;26586;50.708;22.412;2023-02-28T10:23:32;4.25;;;2.10;;
40867;SDS011;26586;50.708;22.412;2023-02-28T10:26:07;7.40;;;4.40;;
40867;SDS011;26586;50.708;22.412;2023-02-28T10:28:37;3.75;;;2.17;;
40867;SDS011;26586;50.708;22.412;2023-02-28T10:31:05;3.45;;;2.03;;
40867;SDS011;26586;50.708;22.412;2023-02-28T10:33:35;21.38;;;4.97;;
40867;SDS011;26586;50.708;22.412;2023-02-28T10:38:36;4.30;;;2.97;;
40867;SDS011;26586;50.708;22.412;2023-02-28T10:41:08;13.50;;;5.40;;
40867;SDS011;26586;50.708;22.412;2023-02-28T10:43:38;6.22;;;3.28;;
40867;SDS011;26586;50.708;22.412;2023-02-28T10:48:44;9.70;;;5.53;;
40867;SDS011;26586;50.708;22.412;2023-02-28T10:51:16;7.75;;;3.97;;
40867;SDS011;26586;50.708;22.412;2023-02-28T10:53:53;7.18;;;4.32;;
40867;SDS011;26586;50.708;22.412;2023-02-28T10:56:21;10.80;;;3.28;;
40867;SDS011;26586;50.708;22.412;2023-02-28T11:04:40;5.47;;;2.88;;
40867;SDS011;26586;50.708;22.412;2023-02-28T11:07:10;11.98;;;3.70;;
40867;SDS011;26586;50.708;22.412;2023-02-28T11:09:50;4.85;;;3.10;;
40867;SDS011;26586;50.708;22.412;2023-02-28T11:14:52;5.68;;;3.00;;
40867;SDS011;26586;50.708;22.412;2023-02-28T11:17:31;5.65;;;3.67;;
40867;SDS011;26586;50.708;22.412;2023-02-28T11:20:05;19.42;;;8.05;;
40867;SDS011;26586;50.708;22.412;2023-02-28T11:22:43;10.55;;;5.45;;
40867;SDS011;26586;50.708;22.412;2023-02-28T11:25:22;8.32;;;3.42;;
40867;SDS011;26586;50.708;22.412;2023-02-28T11:27:53;9.82;;;3.55;;
40867;SDS011;26586;50.708;22.412;2023-02-28T11:30:40;9.73;;;4.35;;
40867;SDS011;26586;50.708;22.412;2023-02-28T11:35:52;4.30;;;2.63;;
40867;SDS011;26586;50.708;22.412;2023-02-28T11:38:21;8.23;;;3.28;;
40867;SDS011;26586;50.708;22.412;2023-02-28T11:43:37;6.85;;;2.72;;
40867;SDS011;26586;50.708;22.412;2023-02-28T11:49:20;5.80;;;3.80;;
40867;SDS011;26586;50.708;22.412;2023-02-28T11:55:09;4.40;;;2.65;;
40867;SDS011;26586;50.708;22.412;2023-02-28T12:00:38;14.60;;;12.15;;
40867;SDS011;26586;50.708;22.412;2023-02-28T12:09:20;5.75;;;2.83;;
40867;SDS011;26586;50.708;22.412;2023-02-28T12:11:59;7.03;;;3.22;;
40867;SDS011;26586;50.708;22.412;2023-02-28T12:17:17;7.63;;;5.13;;
40867;SDS011;26586;50.708;22.412;2023-02-28T12:25:47;3.75;;;2.47;;
40867;SDS011;26586;50.708;22.412;2023-02-28T12:28:20;4.60;;;3.67;;
40867;SDS011;26586;50.708;22.412;2023-02-28T12:31:01;5.20;;;3.00;;
40867;SDS011;26586;50.708;22.412;2023-02-28T12:33:48;3.92;;;2.70;;
40867;SDS011;26586;50.708;22.412;2023-02-28T12:36:18;7.00;;;2.90;;
40867;SDS011;26586;50.708;22.412;2023-02-28T12:38:49;5.70;;;3.03;;
40867;SDS011;26586;50.708;22.412;2023-02-28T12:41:34;3.78;;;2.45;;
40867;SDS011;26586;50.708;22.412;2023-02-28T12:44:13;4.70;;;2.72;;
40867;SDS011;26586;50.708;22.412;2023-02-28T12:46:47;4.30;;;2.90;;
40867;SDS011;26586;50.708;22.412;2023-02-28T12:49:30;4.22;;;1.90;;
40867;SDS011;26586;50.708;22.412;2023-02-28T12:52:00;4.32;;;2.08;;
40867;SDS011;26586;50.708;22.412;2023-02-28T12:54:43;4.88;;;2.85;;
40867;SDS011;26586;50.708;22.412;2023-02-28T12:59:50;7.10;;;4.18;;
40867;SDS011;26586;50.708;22.412;2023-02-28T13:05:10;14.05;;;8.52;;
40867;SDS011;26586;50.708;22.412;2023-02-28T13:07:53;7.03;;;4.57;;
40867;SDS011;26586;50.708;22.412;2023-02-28T13:10:47;10.57;;;6.93;;
40867;SDS011;26586;50.708;22.412;2023-02-28T13:13:20;4.28;;;2.58;;
40867;SDS011;26586;50.708;22.412;2023-02-28T13:15:56;10.55;;;5.55;;
40867;SDS011;26586;50.708;22.412;2023-02-28T13:18:57;7.60;;;4.65;;
40867;SDS011;26586;50.708;22.412;2023-02-28T13:21:22;13.80;;;7.13;;
40867;SDS011;26586;50.708;22.412;2023-02-28T13:26:22;7.40;;;3.92;;
40867;SDS011;26586;50.708;22.412;2023-02-28T13:29:02;6.07;;;4.18;;
40867;SDS011;26586;50.708;22.412;2023-02-28T13:34:34;7.10;;;3.90;;
40867;SDS011;26586;50.708;22.412;2023-02-28T13:47:36;4.82;;;3.22;;
40867;SDS011;26586;50.708;22.412;2023-02-28T13:58:53;5.43;;;3.38;;
40867;SDS011;26586;50.708;22.412;2023-02-28T14:01:29;5.75;;;3.83;;
40867;SDS011;26586;50.708;22.412;2023-02-28T14:06:52;8.30;;;4.75;;
40867;SDS011;26586;50.708;22.412;2023-02-28T14:09:24;11.77;;;5.28;;
40867;SDS011;26586;50.708;22.412;2023-02-28T14:11:57;8.27;;;5.65;;
40867;SDS011;26586;50.708;22.412;2023-02-28T14:17:14;9.00;;;3.88;;
40867;SDS011;26586;50.708;22.412;2023-02-28T14:19:45;6.65;;;3.97;;
40867;SDS011;26586;50.708;22.412;2023-02-28T14:25:04;12.35;;;5.55;;
40867;SDS011;26586;50.708;22.412;2023-02-28T14:33:27;7.65;;;4.05;;
40867;SDS011;26586;50.708;22.412;2023-02-28T14:39:04;9.18;;;4.80;;
40867;SDS011;26586;50.708;22.412;2023-02-28T14:41:34;14.55;;;7.28;;
40867;SDS011;26586;50.708;22.412;2023-02-28T14:44:25;6.65;;;3.83;;
40867;SDS011;26586;50.708;22.412;2023-02-28T14:49:35;5.20;;;3.65;;
40867;SDS011;26586;50.708;22.412;2023-02-28T14:52:27;8.50;;;4.85;;
40867;SDS011;26586;50.708;22.412;2023-02-28T14:57:30;5.85;;;4.05;;
40867;SDS011;26586;50.708;22.412;2023-02-28T15:02:36;16.17;;;9.40;;
40867;SDS011;26586;50.708;22.412;2023-02-28T15:07:38;23.02;;;11.77;;
40867;SDS011;26586;50.708;22.412;2023-02-28T15:12:34;51.78;;;28.85;;
40867;SDS011;26586;50.708;22.412;2023-02-28T15:15:01;30.23;;;22.25;;
40867;SDS011;26586;50.708;22.412;2023-02-28T15:17:28;33.10;;;20.60;;
40867;SDS011;26586;50.708;22.412;2023-02-28T15:19:55;27.58;;;20.15;;
40867;SDS011;26586;50.708;22.412;2023-02-28T15:22:35;29.80;;;18.38;;
40867;SDS011;26586;50.708;22.412;2023-02-28T15:25:03;21.98;;;12.02;;
40867;SDS011;26586;50.708;22.412;2023-02-28T15:27:32;16.45;;;10.18;;
40867;SDS011;26586;50.708;22.412;2023-02-28T15:30:07;42.03;;;18.67;;
40867;SDS011;26586;50.708;22.412;2023-02-28T15:32:40;18.10;;;13.63;;
40867;SDS011;26586;50.708;22.412;2023-02-28T15:37:55;29.42;;;13.30;;
40867;SDS011;26586;50.708;22.412;2023-02-28T15:40:28;20.08;;;9.38;;
40867;SDS011;26586;50.708;22.412;2023-02-28T15:43:00;21.30;;;8.85;;
40867;SDS011;26586;50.708;22.412;2023-02-28T15:45:46;18.48;;;11.18;;
40867;SDS011;26586;50.708;22.412;2023-02-28T15:50:54;25.77;;;14.68;;
40867;SDS011;26586;50.708;22.412;2023-02-28T15:53:36;28.17;;;17.50;;
40867;SDS011;26586;50.708;22.412;2023-02-28T15:56:29;26.00;;;16.70;;
40867;SDS011;26586;50.708;22.412;2023-02-28T15:59:00;35.78;;;25.05;;
40867;SDS011;26586;50.708;22.412;2023-02-28T16:01:31;56.75;;;41.83;;
40867;SDS011;26586;50.708;22.412;2023-02-28T16:04:03;106.32;;;66.60;;
40867;SDS011;26586;50.708;22.412;2023-02-28T16:06:38;51.33;;;33.03;;
40867;SDS011;26586;50.708;22.412;2023-02-28T16:09:11;84.65;;;51.72;;
40867;SDS011;26586;50.708;22.412;2023-02-28T16:11:43;93.40;;;51.60;;
40867;SDS011;26586;50.708;22.412;2023-02-28T16:14:15;80.47;;;45.50;;
40867;SDS011;26586;50.708;22.412;2023-02-28T16:16:49;138.25;;;70.40;;
40867;SDS011;26586;50.708;22.412;2023-02-28T16:19:17;120.50;;;61.40;;
40867;SDS011;26586;50.708;22.412;2023-02-28T16:21:44;111.07;;;62.47;;
40867;SDS011;26586;50.708;22.412;2023-02-28T16:24:11;102.78;;;57.20;;
40867;SDS011;26586;50.708;22.412;2023-02-28T16:26:38;105.63;;;60.83;;
40867;SDS011;26586;50.708;22.412;2023-02-28T16:29:07;93.60;;;51.15;;
40867;SDS011;26586;50.708;22.412;2023-02-28T16:31:38;94.93;;;53.10;;
40867;SDS011;26586;50.708;22.412;2023-02-28T16:34:04;60.77;;;35.03;;
40867;SDS011;26586;50.708;22.412;2023-02-28T16:36:30;43.28;;;25.27;;
40867;SDS011;26586;50.708;22.412;2023-02-28T16:38:57;56.97;;;34.60;;
40867;SDS011;26586;50.708;22.412;2023-02-28T16:41:26;51.50;;;27.45;;
40867;SDS011;26586;50.708;22.412;2023-02-28T16:43:54;82.32;;;39.08;;
40867;SDS011;26586;50.708;22.412;2023-02-28T16:46:32;79.20;;;41.75;;
40867;SDS011;26586;50.708;22.412;2023-02-28T16:49:00;76.75;;;39.38;;
40867;SDS011;26586;50.708;22.412;2023-02-28T16:51:26;103.25;;;46.72;;
40867;SDS011;26586;50.708;22.412;2023-02-28T16:53:53;100.75;;;47.30;;
40867;SDS011;26586;50.708;22.412;2023-02-28T16:56:20;138.18;;;59.58;;
40867;SDS011;26586;50.708;22.412;2023-02-28T16:58:48;128.43;;;56.83;;
40867;SDS011;26586;50.708;22.412;2023-02-28T17:01:16;135.88;;;60.90;;
40867;SDS011;26586;50.708;22.412;2023-02-28T17:03:47;138.88;;;63.47;;
40867;SDS011;26586;50.708;22.412;2023-02-28T17:06:21;140.57;;;68.88;;
40867;SDS011;26586;50.708;22.412;2023-02-28T17:08:49;129.73;;;65.22;;
40867;SDS011;26586;50.708;22.412;2023-02-28T17:13:42;86.40;;;48.53;;
40867;SDS011;26586;50.708;22.412;2023-02-28T17:18:54;61.63;;;38.50;;
40867;SDS011;26586;50.708;22.412;2023-02-28T17:21:22;95.15;;;52.15;;
40867;SDS011;26586;50.708;22.412;2023-02-28T17:23:49;236.52;;;124.07;;